Time;durP1;ratioP1;P1;durP2;ratioP2;P2;SDS_P1;SDS_P2;PMS_P1;PMS_P2;Temp;Humidity;BMP_temperature;BMP_pressure;BME280_temperature;BME280_humidity;BME280_pressure;Samples;Min_cycle;Max_cycle;Signal;HPM_P1;HPM_P2
2021/03/24 00:01:50;;;;;;;26.40;9.80;;;;;;;4.79;76.06;101084.50;115223;1202;26277;-68
2021/03/24 00:04:19;;;;;;;24.13;9.17;;;;;;;4.79;76.09;101090.82;115466;1199;23103;-67
2021/03/24 00:06:47;;;;;;;31.77;11.27;;;;;;;4.80;75.93;101086.08;115359;1200;23108;-66
2021/03/24 00:09:19;;;;;;;29.07;9.97;;;;;;;4.80;75.98;101091.61;115329;1200;23155;-66
2021/03/24 00:11:47;;;;;;;23.45;9.40;;;;;;;4.79;75.79;101078.97;115331;1199;23099;-66
2021/03/24 00:14:16;;;;;;;25.33;9.77;;;;;;;4.78;75.77;101078.17;115385;1199;27378;-67
2021/03/24 00:16:45;;;;;;;28.07;10.00;;;;;;;4.78;75.89;101077.39;115147;1199;23132;-67
2021/03/24 00:19:15;;;;;;;24.90;9.90;;;;;;;4.78;75.87;101083.70;115291;1200;27432;-66
2021/03/24 00:21:43;;;;;;;23.63;9.40;;;;;;;4.76;75.96;101071.49;115268;1200;23105;-66
2021/03/24 00:24:12;;;;;;;25.97;9.03;;;;;;;4.75;75.72;101070.73;115133;1202;23101;-66
2021/03/24 00:26:41;;;;;;;24.63;8.43;;;;;;;4.75;75.84;101078.24;115327;1200;27845;-66
2021/03/24 00:29:10;;;;;;;24.60;8.90;;;;;;;4.73;75.72;101075.91;115413;1200;27313;-66
2021/03/24 00:31:39;;;;;;;23.87;8.70;;;;;;;4.74;75.65;101071.13;115225;1199;23112;-66
2021/03/24 00:34:07;;;;;;;23.20;7.60;;;;;;;4.74;75.72;101071.92;115239;1199;23201;-66
2021/03/24 00:36:37;;;;;;;20.45;7.75;;;;;;;4.75;75.74;101070.73;115233;1200;23102;-67
2021/03/24 00:39:05;;;;;;;25.30;8.45;;;;;;;4.75;75.61;101067.18;115132;1200;23128;-68
2021/03/24 00:41:35;;;;;;;25.73;9.33;;;;;;;4.72;75.47;101063.27;115311;1199;23242;-66
2021/03/24 00:44:05;;;;;;;25.20;10.10;;;;;;;4.74;75.62;101063.63;115236;1199;23184;-66
2021/03/24 00:46:33;;;;;;;23.13;9.13;;;;;;;4.73;75.58;101070.38;115331;1200;25048;-67
2021/03/24 00:49:02;;;;;;;25.47;9.10;;;;;;;4.74;75.38;101074.69;115171;1200;23118;-67
2021/03/24 00:51:31;;;;;;;22.40;8.30;;;;;;;4.75;75.25;101067.18;115180;1202;24903;-66
2021/03/24 00:54:00;;;;;;;23.00;8.90;;;;;;;4.74;75.36;101066.39;115202;1199;27309;-67
2021/03/24 00:56:28;;;;;;;25.85;9.05;;;;;;;4.75;75.18;101067.18;115068;1202;23109;-67
2021/03/24 00:58:57;;;;;;;25.23;9.97;;;;;;;4.76;75.20;101069.52;115200;1200;23180;-67
2021/03/24 01:01:26;;;;;;;28.20;10.40;;;;;;;4.77;75.32;101064.77;115497;1200;24310;-67
2021/03/24 01:03:55;;;;;;;27.27;10.27;;;;;;;4.77;75.07;101068.33;115432;1199;23286;-67
2021/03/24 01:06:24;;;;;;;27.10;9.13;;;;;;;4.77;75.26;101065.56;115088;1200;27589;-67
2021/03/24 01:08:55;;;;;;;28.95;8.95;;;;;;;4.76;74.97;101063.98;115181;1200;27249;-67
2021/03/24 01:11:23;;;;;;;21.60;8.00;;;;;;;4.75;75.10;101064.41;118564;1202;22822;-67
2021/03/24 01:13:52;;;;;;;26.50;8.40;;;;;;;4.75;74.96;101061.64;116774;1200;23112;-66
2021/03/24 01:16:21;;;;;;;24.40;9.50;;;;;;;4.75;75.06;101065.20;115275;1200;23206;-67
2021/03/24 01:18:50;;;;;;;24.97;8.83;;;;;;;4.77;75.16;101067.54;115307;1200;23104;-67
2021/03/24 01:21:18;;;;;;;25.40;8.75;;;;;;;4.75;75.18;101062.44;115170;1200;23102;-66
2021/03/24 01:23:48;;;;;;;24.40;8.80;;;;;;;4.75;74.92;101062.44;115335;1199;26277;-68
2021/03/24 01:26:17;;;;;;;24.80;9.10;;;;;;;4.74;75.00;101060.06;115211;1200;23239;-67
2021/03/24 01:28:57;;;;;;;26.43;8.90;;;;;;;4.75;75.06;101053.34;115476;1203;23110;-66
2021/03/24 01:31:28;;;;;;;26.23;9.50;;;;;;;4.76;75.18;101052.13;115218;1198;26108;-67
2021/03/24 01:33:57;;;;;;;24.00;7.50;;;;;;;4.77;75.10;101062.80;115355;1200;25990;-67
2021/03/24 01:36:28;;;;;;;22.50;8.40;;;;;;;4.78;75.05;101060.79;115205;1200;23102;-66
2021/03/24 01:38:58;;;;;;;24.50;9.00;;;;;;;4.80;74.96;101050.12;115382;1202;23131;-66
2021/03/24 01:41:29;;;;;;;25.00;8.40;;;;;;;4.80;74.96;101058.41;115218;1200;23103;-66
2021/03/24 01:43:58;;;;;;;25.45;8.25;;;;;;;4.78;74.86;101044.98;115492;1202;23953;-66
2021/03/24 01:46:38;;;;;;;21.58;6.78;;;;;;;4.79;75.08;101056.84;115302;1202;23118;-66
2021/03/24 01:49:14;;;;;;;23.40;8.60;;;;;;;4.78;74.98;101047.75;115325;1200;23115;-67
2021/03/24 01:51:47;;;;;;;25.30;8.15;;;;;;;4.80;75.14;101052.88;115170;1200;23103;-67
2021/03/24 01:54:23;;;;;;;24.70;9.35;;;;;;;4.84;75.24;101056.38;115343;1203;24725;-67
2021/03/24 01:56:57;;;;;;;23.30;8.10;;;;;;;4.87;75.31;101066.58;115203;1202;23106;-67
2021/03/24 01:59:25;;;;;;;23.00;7.80;;;;;;;4.88;75.23;101063.39;115336;1202;26328;-66
2021/03/24 02:01:57;;;;;;;24.00;9.33;;;;;;;4.89;75.27;101064.17;115239;1202;23170;-67
2021/03/24 02:04:26;;;;;;;27.30;9.07;;;;;;;4.88;75.15;101057.09;115241;1200;23269;-67
2021/03/24 02:07:01;;;;;;;22.88;8.63;;;;;;;4.88;75.25;101066.16;115302;1202;23554;-67
2021/03/24 02:09:35;;;;;;;25.15;8.65;;;;;;;4.89;75.26;101061.41;115318;1202;23192;-67
2021/03/24 02:12:10;;;;;;;24.33;8.87;;;;;;;4.88;75.27;101065.39;115136;1200;27020;-69
2021/03/24 02:14:47;;;;;;;28.80;9.70;;;;;;;4.88;75.01;101063.39;115218;1200;27437;-67
2021/03/24 02:17:16;;;;;;;26.30;9.70;;;;;;;4.86;75.25;101049.19;115231;1200;23105;-67
2021/03/24 02:19:59;;;;;;;25.50;9.37;;;;;;;4.84;75.30;101048.83;115386;1200;23081;-67
2021/03/24 02:22:36;;;;;;;27.63;9.97;;;;;;;4.81;75.04;101046.92;115244;1200;26277;-67
2021/03/24 02:25:11;;;;;;;25.13;9.30;;;;;;;4.77;75.08;101048.97;115286;1199;23114;-67
2021/03/24 02:27:44;;;;;;;22.40;9.70;;;;;;;4.75;75.09;101056.11;115237;1202;23115;-67
2021/03/24 02:30:18;;;;;;;27.15;9.60;;;;;;;4.72;75.32;101052.20;115334;1199;26326;-66
2021/03/24 02:32:55;;;;;;;29.70;9.53;;;;;;;4.70;75.16;101048.28;115207;1200;23129;-67
2021/03/24 02:35:28;;;;;;;25.50;9.40;;;;;;;4.70;75.13;101048.28;115186;1200;23106;-67
2021/03/24 02:37:59;;;;;;;25.07;9.70;;;;;;;4.70;75.26;101048.28;115229;1202;23167;-67
2021/03/24 02:40:30;;;;;;;29.30;9.90;;;;;;;4.69;75.26;101046.73;115294;1202;23169;-67
2021/03/24 02:43:01;;;;;;;31.53;10.57;;;;;;;4.65;75.26;101052.33;115161;1199;23090;-67
2021/03/24 02:45:30;;;;;;;;;;;;;;;4.64;75.42;101047.98;115369;1204;23167;-66
2021/03/24 02:48:02;;;;;;;25.90;9.73;;;;;;;4.64;75.33;101052.72;115294;1200;21611;-68
2021/03/24 02:50:33;;;;;;;24.80;9.85;;;;;;;4.62;75.38;101052.36;115341;1199;23109;-67
2021/03/24 02:53:03;;;;;;;28.65;10.80;;;;;;;4.60;75.37;101050.02;115370;1201;23106;-66
2021/03/24 02:55:37;;;;;;;30.13;11.53;;;;;;;4.59;75.30;101048.45;115212;1200;23253;-66
2021/03/24 02:58:06;;;;;;;30.23;11.47;;;;;;;4.60;75.43;101049.23;115257;1199;25344;-67
2021/03/24 03:00:35;;;;;;;29.80;11.03;;;;;;;4.59;75.25;101059.50;115267;1199;23455;-66
2021/03/24 03:03:10;;;;;;;29.60;11.50;;;;;;;4.57;75.44;101047.32;115311;1200;27313;-67
2021/03/24 03:05:40;;;;;;;29.80;10.43;;;;;;;4.55;75.43;101044.95;115298;1199;23112;-66
2021/03/24 03:08:13;;;;;;;26.58;10.60;;;;;;;4.53;75.44;101043.83;115325;1199;23080;-68
2021/03/24 03:10:52;;;;;;;28.27;10.37;;;;;;;4.53;75.36;101049.36;115398;1199;27422;-67
2021/03/24 03:13:26;;;;;;;26.50;8.95;;;;;;;4.51;75.48;101055.28;115395;1200;26233;-67
2021/03/24 03:16:02;;;;;;;26.80;9.80;;;;;;;4.50;75.30;101044.66;115199;1200;23253;-68
2021/03/24 03:18:37;;;;;;;26.27;9.53;;;;;;;4.50;75.49;101048.20;115414;1199;27865;-69
2021/03/24 03:21:10;;;;;;;27.20;8.70;;;;;;;4.50;75.30;101050.19;115269;1200;24772;-66
2021/03/24 03:23:39;;;;;;;32.15;9.80;;;;;;;4.49;75.55;101046.63;115324;1199;23168;-67
2021/03/24 03:26:12;;;;;;;28.23;10.27;;;;;;;4.50;75.43;101059.27;115318;1199;23176;-67
2021/03/24 03:28:44;;;;;;;27.23;10.60;;;;;;;4.50;75.33;101052.95;115192;1201;23115;-66
2021/03/24 03:31:16;;;;;;;31.50;9.95;;;;;;;4.50;75.46;101053.73;115234;1199;23256;-69
2021/03/24 03:33:49;;;;;;;25.60;9.40;;;;;;;4.51;75.40;101051.77;115284;1199;27702;-66
2021/03/24 03:36:18;;;;;;;30.65;10.30;;;;;;;4.51;75.55;101051.77;115240;1200;23110;-67
2021/03/24 03:38:49;;;;;;;26.27;9.47;;;;;;;4.51;75.54;101063.58;115260;1199;23169;-68
2021/03/24 03:41:19;;;;;;;30.80;10.65;;;;;;;4.52;75.41;101062.40;115244;1200;23421;-67
2021/03/24 03:43:51;;;;;;;26.30;11.38;;;;;;;4.52;75.51;101062.40;115164;1200;26232;-67
2021/03/24 03:46:24;;;;;;;29.37;11.03;;;;;;;4.52;75.67;101054.10;115267;1203;23173;-67
2021/03/24 03:48:53;;;;;;;26.10;9.50;;;;;;;4.51;75.54;101049.76;115316;1199;23135;-67
2021/03/24 03:51:31;;;;;;;27.20;10.35;;;;;;;4.51;75.65;101049.00;115117;1200;23250;-67
2021/03/24 03:54:07;;;;;;;27.47;9.63;;;;;;;4.49;75.69;101049.39;115399;1200;23111;-67
2021/03/24 03:56:40;;;;;;;29.85;11.10;;;;;;;4.49;75.84;101045.87;115397;1200;23102;-69
2021/03/24 03:59:14;;;;;;;28.65;10.30;;;;;;;4.47;75.73;101034.45;115340;1203;26313;-67
2021/03/24 04:01:50;;;;;;;31.05;12.65;;;;;;;4.46;75.97;101050.25;115473;1199;23114;-66
2021/03/24 04:04:24;;;;;;;29.50;10.40;;;;;;;4.45;75.87;101040.38;115248;1200;25168;-66
2021/03/24 04:06:59;;;;;;;29.57;9.93;;;;;;;4.45;75.96;101043.14;115383;1200;28135;-66
2021/03/24 04:09:29;;;;;;;28.10;10.05;;;;;;;4.45;75.70;101043.14;115248;1199;23125;-67
2021/03/24 04:11:58;;;;;;;28.18;10.00;;;;;;;4.45;76.01;101045.14;115335;1200;23308;-67
2021/03/24 04:14:30;;;;;;;27.73;9.83;;;;;;;4.44;75.83;101046.33;115428;1200;28269;-66
2021/03/24 04:16:59;;;;;;;28.00;9.35;;;;;;;4.43;75.92;101047.55;115403;1202;23122;-66
2021/03/24 04:19:35;;;;;;;27.15;9.70;;;;;;;4.42;75.81;101041.22;115256;1199;27361;-67
2021/03/24 04:22:05;;;;;;;27.10;10.10;;;;;;;4.42;75.90;101045.97;115366;1199;23114;-67
2021/03/24 04:24:37;;;;;;;31.47;11.80;;;;;;;4.42;75.73;101043.20;115255;1199;23578;-66
2021/03/24 04:27:09;;;;;;;30.70;11.40;;;;;;;4.41;76.10;101047.15;115383;1199;28268;-67
2021/03/24 04:29:42;;;;;;;28.13;11.37;;;;;;;4.43;75.89;101053.08;115269;1202;27392;-67
2021/03/24 04:32:12;;;;;;;32.17;10.77;;;;;;;4.44;76.11;101051.86;115354;1200;23107;-68
2021/03/24 04:34:43;;;;;;;31.48;10.93;;;;;;;4.45;75.97;101056.20;115344;1200;26021;-67
2021/03/24 04:37:17;;;;;;;29.70;10.73;;;;;;;4.45;75.91;101065.26;115207;1200;23099;-67
2021/03/24 04:39:52;;;;;;;27.83;10.87;;;;;;;4.47;76.07;101062.09;115123;1200;23096;-68
2021/03/24 04:42:25;;;;;;;27.60;9.60;;;;;;;4.48;76.05;101060.88;115209;1200;26583;-67
2021/03/24 04:45:02;;;;;;;29.00;10.20;;;;;;;4.49;76.13;101065.22;115154;1200;23311;-68
2021/03/24 04:47:35;;;;;;;31.10;11.40;;;;;;;4.48;76.38;101069.97;114966;1200;23115;-67
2021/03/24 04:50:17;;;;;;;28.10;10.75;;;;;;;4.48;76.51;101078.26;115094;1200;23090;-68
2021/03/24 04:52:47;;;;;;;31.03;11.77;;;;;;;4.47;76.40;101067.63;115251;1199;23105;-66
2021/03/24 04:55:22;;;;;;;28.85;10.13;;;;;;;4.46;76.19;101079.88;115224;1200;23115;-66
2021/03/24 04:57:55;;;;;;;29.40;11.30;;;;;;;4.46;76.29;101071.58;115209;1203;23129;-67
2021/03/24 05:00:32;;;;;;;31.37;11.00;;;;;;;4.47;76.28;101075.92;115200;1199;23094;-67
2021/03/24 05:03:06;;;;;;;28.23;10.83;;;;;;;4.46;76.20;101075.13;115357;1202;23104;-67
2021/03/24 05:05:41;;;;;;;27.35;10.05;;;;;;;4.45;76.29;101081.84;115365;1200;23115;-67
2021/03/24 05:08:18;;;;;;;29.20;11.80;;;;;;;4.45;76.45;101078.31;115469;1202;27352;-67
2021/03/24 05:10:47;;;;;;;30.65;11.60;;;;;;;4.44;76.30;101076.73;115294;1198;27115;-67
2021/03/24 05:13:23;;;;;;;29.03;11.33;;;;;;;4.42;76.37;101077.16;115180;1200;23255;-67
2021/03/24 05:15:59;;;;;;;27.20;10.10;;;;;;;4.39;76.26;101072.45;115363;1199;23174;-67
2021/03/24 05:18:28;;;;;;;26.60;10.43;;;;;;;4.39;76.42;101079.95;115184;1199;27636;-67
2021/03/24 05:21:06;;;;;;;24.20;9.00;;;;;;;4.38;76.46;101081.17;115200;1200;23106;-67
2021/03/24 05:23:35;;;;;;;24.83;8.70;;;;;;;4.37;76.72;101080.38;115151;1199;27225;-66
2021/03/24 05:26:07;;;;;;;27.80;9.87;;;;;;;4.38;76.76;101086.70;115163;1199;23333;-68
2021/03/24 05:28:40;;;;;;;29.60;10.50;;;;;;;4.37;76.77;101088.67;115307;1200;27259;-69
2021/03/24 05:31:13;;;;;;;27.80;10.35;;;;;;;4.39;76.71;101079.95;115326;1200;23307;-67
2021/03/24 05:33:46;;;;;;;28.47;10.13;;;;;;;4.38;76.73;101073.67;115200;1200;23111;-67
2021/03/24 05:36:19;;;;;;;27.90;10.50;;;;;;;4.38;76.80;101075.64;115239;1200;23135;-67
2021/03/24 05:38:51;;;;;;;25.45;8.75;;;;;;;4.39;77.02;101082.72;115319;1199;23118;-67
2021/03/24 05:41:34;;;;;;;27.80;8.50;;;;;;;4.38;77.01;101083.94;115299;1199;23243;-67
2021/03/24 05:44:29;;;;;;;27.30;9.95;;;;;;;4.40;76.95;101092.59;115161;1200;23395;-68
2021/03/24 05:47:15;;;;;;;28.90;10.10;;;;;;;4.41;77.19;101094.94;115143;1200;23124;-67
2021/03/24 05:49:51;;;;;;;25.37;8.73;;;;;;;4.41;77.10;101089.41;115208;1202;23247;-66
2021/03/24 05:52:29;;;;;;;25.13;8.60;;;;;;;4.41;77.19;101085.85;115295;1202;24865;-66
2021/03/24 05:55:19;;;;;;;27.13;9.47;;;;;;;4.42;77.28;101095.73;115330;1200;23155;-66
2021/03/24 05:58:04;;;;;;;23.97;8.37;;;;;;;4.43;77.16;101089.02;115234;1200;24969;-67
2021/03/24 06:00:42;;;;;;;27.00;9.70;;;;;;;4.43;77.29;101083.48;115296;1199;23479;-67
2021/03/24 06:03:24;;;;;;;27.87;9.57;;;;;;;4.44;77.40;101077.53;115324;1200;23243;-67
2021/03/24 06:06:21;;;;;;;28.60;10.13;;;;;;;4.45;77.28;101086.61;115246;1199;23106;-67
2021/03/24 06:09:13;;;;;;;28.50;10.05;;;;;;;4.48;77.31;101088.53;115300;1203;26329;-67
2021/03/24 06:12:01;;;;;;;23.75;8.65;;;;;;;4.49;77.44;101084.58;115056;1203;26692;-59
2021/03/24 06:15:07;;;;;;;30.70;10.60;;;;;;;4.53;77.42;101090.84;115094;1203;27531;-60
2021/03/24 06:17:49;;;;;;;33.50;11.00;;;;;;;4.54;77.38;101089.63;115056;1202;24571;-60
2021/03/24 06:20:30;;;;;;;32.43;10.70;;;;;;;4.57;77.27;101097.09;115140;1203;23126;-60
2021/03/24 06:23:26;;;;;;;28.50;10.50;;;;;;;4.59;77.48;101097.46;115196;1203;23608;-60
2021/03/24 06:26:07;;;;;;;32.87;12.33;;;;;;;4.62;77.39;101091.08;114926;1203;23115;-60
2021/03/24 06:28:46;;;;;;;38.15;11.65;;;;;;;4.67;77.35;101088.64;114869;1202;23119;-61
2021/03/24 06:31:55;;;;;;;31.05;11.75;;;;;;;4.73;77.42;101097.24;114879;1206;23119;-61
2021/03/24 06:35:09;;;;;;;29.40;11.10;;;;;;;4.77;77.38;101095.20;114702;1203;24906;-60
2021/03/24 06:37:52;;;;;;;34.80;10.40;;;;;;;4.78;77.56;101093.98;114777;1203;23139;-59
2021/03/24 06:40:47;;;;;;;33.80;10.87;;;;;;;4.77;77.29;101093.23;114797;1203;23204;-60
2021/03/24 06:43:31;;;;;;;29.90;11.50;;;;;;;4.78;77.41;101103.08;114621;1207;27367;-60
2021/03/24 06:46:16;;;;;;;29.50;11.53;;;;;;;4.77;77.62;101098.76;114670;1205;27329;-61
2021/03/24 06:48:57;;;;;;;34.95;13.65;;;;;;;4.79;77.46;101107.42;114774;1203;27252;-61
2021/03/24 06:52:02;;;;;;;28.80;10.70;;;;;;;4.82;77.41;101116.88;115423;1206;23250;-60
2021/03/24 06:55:20;;;;;;;32.20;10.80;;;;;;;4.85;77.19;101121.55;114759;1203;24787;-61
2021/03/24 06:58:08;;;;;;;34.05;13.05;;;;;;;4.87;77.26;101124.68;114626;1206;23133;-59
2021/03/24 07:00:53;;;;;;;33.05;12.30;;;;;;;4.87;77.34;101125.47;114721;1209;23601;-61
2021/03/24 07:04:05;;;;;;;28.90;10.00;;;;;;;4.89;77.02;101122.28;114788;1206;23154;-61
2021/03/24 07:06:45;;;;;;;27.60;11.55;;;;;;;4.91;76.96;101128.17;114363;1206;23354;-62
2021/03/24 07:09:27;;;;;;;31.00;11.50;;;;;;;4.93;77.14;101128.53;114577;1206;24815;-60
2021/03/24 07:12:05;;;;;;;30.05;11.35;;;;;;;4.97;77.05;101125.70;114627;1206;23627;-60
2021/03/24 07:15:08;;;;;;;30.35;11.25;;;;;;;4.99;77.09;101131.63;114678;1206;23489;-60
2021/03/24 07:17:55;;;;;;;25.90;11.05;;;;;;;5.01;77.17;101124.45;115222;1206;23100;-61
2021/03/24 07:20:47;;;;;;;29.30;11.15;;;;;;;5.05;77.17;101135.48;114486;1207;23252;-61
2021/03/24 07:23:41;;;;;;;28.00;10.90;;;;;;;5.07;77.03;101133.08;114596;1208;23096;-61
2021/03/24 07:26:17;;;;;;;29.03;11.63;;;;;;;5.11;77.23;101128.27;114459;1206;26157;-60
2021/03/24 07:29:03;;;;;;;30.10;10.90;;;;;;;5.12;76.92;101130.61;115748;1209;23296;-61
2021/03/24 07:31:47;;;;;;;28.90;11.50;;;;;;;5.15;76.88;101137.30;115663;1206;23261;-61
2021/03/24 07:34:37;;;;;;;26.40;11.20;;;;;;;5.17;77.11;101141.22;114727;1203;23123;-61
2021/03/24 07:37:35;;;;;;;29.20;10.73;;;;;;;5.21;76.75;101133.63;114979;1206;23348;-61
2021/03/24 07:40:39;;;;;;;29.20;12.00;;;;;;;5.23;77.02;101136.76;114427;1206;24810;-61
2021/03/24 07:43:37;;;;;;;29.85;10.90;;;;;;;5.27;76.99;101129.17;113928;1206;23141;-61
2021/03/24 07:46:27;;;;;;;25.45;10.05;;;;;;;5.28;76.64;101136.27;114748;1206;23160;-61
2021/03/24 07:49:15;;;;;;;26.10;10.05;;;;;;;5.29;76.76;101142.59;114584;1205;23633;-61
2021/03/24 07:52:09;;;;;;;27.20;11.75;;;;;;;5.32;76.65;101138.96;114916;1206;24053;-62
2021/03/24 07:54:43;;;;;;;26.80;8.80;;;;;;;5.33;76.70;101146.87;114355;1206;26753;-61
2021/03/24 07:57:25;;;;;;;27.50;10.95;;;;;;;5.34;76.69;101142.13;114856;1206;23213;-61
2021/03/24 08:00:03;;;;;;;31.40;12.85;;;;;;;5.36;76.51;101145.25;114681;1210;26593;-61
2021/03/24 08:03:02;;;;;;;27.40;11.27;;;;;;;5.37;76.54;101142.05;114436;1206;27287;-61
2021/03/24 08:06:07;;;;;;;27.90;10.40;;;;;;;5.40;76.53;101137.66;114317;1206;23217;-61
2021/03/24 08:08:57;;;;;;;27.90;12.30;;;;;;;5.42;76.55;101136.02;114401;1206;23141;-61
2021/03/24 08:11:33;;;;;;;27.55;11.55;;;;;;;5.45;76.34;101132.41;114749;1205;27879;-62
2021/03/24 08:14:18;;;;;;;30.40;11.80;;;;;;;5.47;76.65;101138.31;114564;1206;23141;-61
2021/03/24 08:16:59;;;;;;;35.23;14.07;;;;;;;5.51;76.77;101139.03;114311;1205;23149;-61
2021/03/24 08:19:45;;;;;;;29.80;12.50;;;;;;;5.56;76.57;101141.33;114635;1203;23118;-61
2021/03/24 08:22:34;;;;;;;28.00;12.10;;;;;;;5.59;76.36;101145.21;114492;1205;23124;-60
2021/03/24 08:25:20;;;;;;;31.50;12.90;;;;;;;5.59;76.45;101143.23;114535;1203;23124;-61
2021/03/24 08:27:53;;;;;;;28.75;12.10;;;;;;;5.62;76.35;101139.63;114332;1205;23130;-61
2021/03/24 08:30:26;;;;;;;29.80;11.95;;;;;;;5.66;76.36;101140.34;115049;1202;23179;-61
2021/03/24 08:33:47;;;;;;;34.93;13.93;;;;;;;5.69;76.51;101139.48;114656;1203;27240;-61
2021/03/24 08:36:28;;;;;;;31.50;13.75;;;;;;;5.74;76.51;101141.77;114632;1200;23205;-61
2021/03/24 08:39:32;;;;;;;32.50;12.90;;;;;;;5.77;76.20;101137.38;115115;1203;26516;-62
2021/03/24 08:42:25;;;;;;;40.23;16.07;;;;;;;5.81;76.36;101145.61;115160;1200;23161;-62
2021/03/24 08:44:59;;;;;;;35.60;12.90;;;;;;;5.85;76.00;101151.90;115815;1199;23092;-62
2021/03/24 08:47:33;;;;;;;35.60;14.20;;;;;;;5.87;75.98;101143.94;115276;1200;23550;-62
2021/03/24 08:50:03;;;;;;;33.90;14.53;;;;;;;5.90;75.81;101143.11;115099;1199;27308;-62
2021/03/24 08:52:45;;;;;;;38.10;13.10;;;;;;;5.92;75.72;101140.69;115484;1202;23098;-60
2021/03/24 08:55:28;;;;;;;32.93;14.83;;;;;;;5.92;75.55;101132.38;114766;1202;26877;-61
2021/03/24 08:58:10;;;;;;;31.55;13.00;;;;;;;5.96;75.61;101136.62;115613;1199;23175;-60
2021/03/24 09:00:56;;;;;;;36.07;14.73;;;;;;;5.97;75.61;101129.09;114790;1200;23352;-60
2021/03/24 09:04:06;;;;;;;35.50;15.33;;;;;;;5.99;75.36;101135.78;114882;1202;23135;-60
2021/03/24 09:06:48;;;;;;;36.60;15.90;;;;;;;6.03;75.37;101135.70;114472;1205;23216;-60
2021/03/24 09:09:43;;;;;;;36.30;15.70;;;;;;;6.07;75.47;101130.86;115163;1200;23120;-62
2021/03/24 09:12:20;;;;;;;33.95;14.30;;;;;;;6.09;75.11;101128.45;114520;1206;23186;-60
2021/03/24 09:14:54;;;;;;;32.20;14.10;;;;;;;6.09;75.28;101134.78;115337;1205;23133;-60
2021/03/24 09:17:39;;;;;;;32.70;13.65;;;;;;;6.09;75.29;101136.77;114785;1200;23567;-60
2021/03/24 09:20:42;;;;;;;34.60;14.15;;;;;;;6.12;75.15;101133.16;114568;1200;25950;-60
2021/03/24 09:23:59;;;;;;;34.70;14.10;;;;;;;6.15;75.19;101130.30;117230;1205;23110;-60
2021/03/24 09:27:01;;;;;;;32.13;14.40;;;;;;;6.15;74.82;101130.30;114614;1203;23210;-60
2021/03/24 09:29:45;;;;;;;39.20;15.60;;;;;;;6.17;75.02;101127.88;114413;1205;23110;-61
2021/03/24 09:32:30;;;;;;;39.65;15.95;;;;;;;6.22;75.18;101121.05;114901;1205;26185;-60
2021/03/24 09:35:19;;;;;;;37.70;16.97;;;;;;;6.27;75.19;101115.78;114611;1204;23273;-61
2021/03/24 09:37:57;;;;;;;47.47;18.43;;;;;;;6.35;75.20;101117.19;114703;1205;23285;-61
2021/03/24 09:40:32;;;;;;;38.15;16.65;;;;;;;6.42;75.08;101119.81;114940;1200;23138;-61
2021/03/24 09:43:06;;;;;;;40.93;17.43;;;;;;;6.46;74.82;101106.65;114799;1200;23132;-60
2021/03/24 09:45:39;;;;;;;41.70;18.10;;;;;;;6.52;74.91;101112.45;115023;1202;23372;-60
2021/03/24 09:48:14;;;;;;;41.45;16.90;;;;;;;6.57;74.75;101116.72;115234;1200;27348;-60
2021/03/24 09:50:49;;;;;;;35.80;17.43;;;;;;;6.60;74.50;101105.53;115374;1201;23239;-60
2021/03/24 09:53:25;;;;;;;41.00;17.83;;;;;;;6.65;74.50;101109.80;114914;1198;23245;-62
2021/03/24 09:56:04;;;;;;;39.80;17.80;;;;;;;6.69;74.42;101107.72;115048;1200;23120;-61
2021/03/24 09:58:51;;;;;;;33.63;14.40;;;;;;;6.71;73.82;101119.95;114989;1201;28345;-61
2021/03/24 10:01:39;;;;;;;38.40;15.80;;;;;;;6.70;73.93;101112.07;115021;1200;23101;-61
2021/03/24 10:04:19;;;;;;;33.03;14.47;;;;;;;6.70;73.62;101112.86;115228;1200;23132;-62
2021/03/24 10:07:48;;;;;;;34.50;15.70;;;;;;;6.69;73.91;101111.28;115519;1199;23505;-62
2021/03/24 10:10:31;;;;;;;34.35;14.05;;;;;;;6.73;73.76;101113.97;114895;1200;23307;-62
2021/03/24 10:13:08;;;;;;;35.13;15.97;;;;;;;6.76;73.84;101113.12;115218;1202;26348;-62
2021/03/24 10:15:42;;;;;;;33.25;14.40;;;;;;;6.73;73.22;101120.30;115236;1199;26233;-63
2021/03/24 10:18:21;;;;;;;34.10;14.20;;;;;;;6.70;73.50;101109.30;115147;1198;23106;-62
2021/03/24 10:21:03;;;;;;;34.60;14.43;;;;;;;6.73;73.50;101111.98;115237;1200;23102;-62
2021/03/24 10:23:40;;;;;;;35.50;15.80;;;;;;;6.76;73.66;101111.13;115100;1202;23099;-62
2021/03/24 10:26:14;;;;;;;31.05;14.45;;;;;;;6.80;73.39;101105.48;115399;1200;23195;-62
2021/03/24 10:28:52;;;;;;;33.57;14.90;;;;;;;6.81;73.27;101102.27;115490;1199;23315;-62
2021/03/24 10:31:25;;;;;;;32.55;14.65;;;;;;;6.83;73.01;101099.09;115289;1199;26264;-63
2021/03/24 10:33:59;;;;;;;32.60;14.13;;;;;;;6.84;73.20;101092.31;115112;1200;23109;-62
2021/03/24 10:36:36;;;;;;;34.10;15.00;;;;;;;6.86;73.23;101096.22;115064;1199;26704;-62
2021/03/24 10:39:15;;;;;;;35.50;17.30;;;;;;;6.91;73.32;101098.45;115226;1199;23099;-62
2021/03/24 10:41:55;;;;;;;38.50;16.43;;;;;;;6.97;73.49;101093.95;115256;1200;23148;-62
2021/03/24 10:44:36;;;;;;;36.45;16.53;;;;;;;7.02;73.07;101098.20;115532;1200;23103;-63
2021/03/24 10:47:26;;;;;;;33.97;15.70;;;;;;;7.05;72.77;101095.36;115229;1202;27888;-62
2021/03/24 10:50:17;;;;;;;32.60;14.15;;;;;;;7.08;72.63;101090.91;115213;1202;23098;-62
2021/03/24 10:53:14;;;;;;;28.80;13.53;;;;;;;7.10;72.03;101086.48;115457;1201;25999;-62
2021/03/24 10:55:45;;;;;;;34.63;15.37;;;;;;;7.11;72.31;101082.52;115152;1199;23230;-62
2021/03/24 10:58:33;;;;;;;;;;;;;;;7.12;72.15;101078.50;117710;1204;23308;-62
2021/03/24 11:01:11;;;;;;;32.87;13.93;;;;;;;7.10;72.21;101075.38;115194;1199;21603;-62
2021/03/24 11:03:59;;;;;;;31.40;13.77;;;;;;;7.13;71.74;101079.29;115161;1200;23097;-62
2021/03/24 11:06:37;;;;;;;37.33;15.73;;;;;;;7.17;71.80;101074.42;115205;1202;23111;-62
2021/03/24 11:09:11;;;;;;;31.75;14.60;;;;;;;7.21;71.67;101073.13;115328;1201;23095;-62
2021/03/24 11:11:47;;;;;;;36.65;14.50;;;;;;;7.24;71.45;101077.03;115467;1198;24784;-62
2021/03/24 11:14:21;;;;;;;34.35;14.55;;;;;;;7.26;71.46;101072.58;115313;1201;28402;-62
2021/03/24 11:16:56;;;;;;;29.85;14.00;;;;;;;7.27;71.34;101062.26;115290;1199;24377;-63
2021/03/24 11:19:29;;;;;;;31.53;12.87;;;;;;;7.30;71.08;101076.05;115172;1198;26515;-62
2021/03/24 11:22:24;;;;;;;35.67;15.33;;;;;;;7.33;71.25;101068.84;115354;1199;23241;-62
2021/03/24 11:24:58;;;;;;;35.85;16.05;;;;;;;7.34;70.97;101071.17;115200;1200;23102;-62
2021/03/24 11:27:36;;;;;;;35.20;15.70;;;;;;;7.34;70.45;101062.08;115354;1199;26027;-63
2021/03/24 11:30:24;;;;;;;37.80;15.10;;;;;;;7.29;70.24;101065.38;115251;1196;23170;-63
2021/03/24 11:33:10;;;;;;;32.95;14.85;;;;;;;7.28;70.12;101070.14;115302;1200;25037;-62
2021/03/24 11:35:46;;;;;;;33.85;14.65;;;;;;;7.26;70.14;101064.25;115122;1199;25999;-63
2021/03/24 11:38:29;;;;;;;37.23;16.20;;;;;;;7.26;70.60;101066.27;115090;1199;26602;-62
2021/03/24 11:41:05;;;;;;;30.63;15.13;;;;;;;7.30;70.14;101072.51;115210;1199;23096;-62
2021/03/24 11:43:40;;;;;;;36.55;17.00;;;;;;;7.34;69.91;101057.28;115088;1200;24782;-61
2021/03/24 11:46:20;;;;;;;34.25;14.90;;;;;;;7.37;69.27;101058.41;115064;1202;23129;-61
2021/03/24 11:49:28;;;;;;;32.83;15.85;;;;;;;7.39;69.48;101066.33;115167;1202;23167;-62
2021/03/24 11:52:14;;;;;;;32.53;14.23;;;;;;;7.40;69.27;101062.32;114958;1202;27196;-60
2021/03/24 11:55:00;;;;;;;37.05;14.75;;;;;;;7.37;69.27;101049.33;115116;1202;23111;-60
2021/03/24 11:57:42;;;;;;;38.10;17.53;;;;;;;7.34;69.46;101051.73;115076;1202;27326;-61
2021/03/24 12:00:27;;;;;;;34.17;15.87;;;;;;;7.38;69.44;101053.64;115099;1198;24733;-62
2021/03/24 12:03:19;;;;;;;33.55;15.95;;;;;;;7.42;68.84;101048.77;115089;1202;23226;-61
2021/03/24 12:05:57;;;;;;;32.70;14.00;;;;;;;7.43;67.45;101050.34;115045;1202;23096;-61